createdAt,value
2022-09-05T00:01:10.477Z,3.58
2022-09-05T00:06:14.121Z,4.40
2022-09-05T00:11:42.417Z,3.75
2022-09-05T00:16:45.802Z,3.72
2022-09-05T00:24:29.483Z,4.40
2022-09-05T00:27:12.174Z,3.90
2022-09-05T00:32:14.486Z,6.45
2022-09-05T00:37:14.973Z,6.13
2022-09-05T00:42:16.753Z,4.95
2022-09-05T00:47:18.730Z,4.97
2022-09-05T00:52:21.155Z,5.28
2022-09-05T00:57:40.284Z,6.47
2022-09-05T01:02:51.321Z,5.68
2022-09-05T01:07:59.805Z,4.55
2022-09-05T01:13:07.372Z,5.32
2022-09-05T01:18:14.913Z,4.65
2022-09-05T01:23:31.350Z,4.28
2022-09-05T01:29:16.063Z,4.20
2022-09-05T01:33:58.450Z,4.73
2022-09-05T01:39:53.630Z,5.47
2022-09-05T01:44:38.839Z,5.32
2022-09-05T01:49:43.900Z,4.80
2022-09-05T01:54:47.479Z,7.05
2022-09-05T01:59:49.725Z,8.47
2022-09-05T02:04:57.710Z,6.28
2022-09-05T02:10:10.883Z,5.07
2022-09-05T02:15:16.153Z,6.95
2022-09-05T02:20:23.419Z,5.05
2022-09-05T02:26:01.612Z,6.30
2022-09-05T02:31:18.782Z,5.43
2022-09-05T02:36:15.269Z,5.15
2022-09-05T02:45:09.926Z,5.85
2022-09-05T02:46:46.715Z,11.10
2022-09-05T02:57:46.120Z,11.43
2022-09-05T02:58:06.586Z,5.05
2022-09-05T03:02:59.557Z,6.53
2022-09-05T03:08:15.229Z,7.72
2022-09-05T03:13:34.223Z,12.32
2022-09-05T03:19:02.897Z,10.35
2022-09-05T03:24:16.016Z,8.00
2022-09-05T03:29:29.254Z,4.38
2022-09-05T03:34:38.068Z,10.10
2022-09-05T03:39:54.822Z,5.43
2022-09-05T03:45:05.824Z,8.35
2022-09-05T03:54:22.951Z,11.68
2022-09-05T03:57:26.578Z,9.45
2022-09-05T04:01:10.845Z,10.80
2022-09-05T04:08:17.419Z,7.95
2022-09-05T04:11:48.506Z,7.78
2022-09-05T04:16:49.781Z,5.45
2022-09-05T04:21:50.628Z,9.88
2022-09-05T04:27:00.456Z,8.75
2022-09-05T04:32:19.003Z,4.40
2022-09-05T04:37:47.654Z,31.73
2022-09-05T04:42:47.053Z,88.47
2022-09-05T04:47:50.777Z,33.63
2022-09-05T04:53:04.073Z,30.52
2022-09-05T04:58:05.440Z,46.25
2022-09-05T05:06:17.748Z,38.90
2022-09-05T05:08:38.016Z,29.20
2022-09-05T05:18:01.744Z,26.97
2022-09-05T05:19:18.956Z,16.90
2022-09-05T05:24:21.720Z,16.40
2022-09-05T05:29:24.152Z,14.40
2022-09-05T05:34:25.335Z,14.13
2022-09-05T05:39:26.131Z,12.18
2022-09-05T05:44:28.177Z,16.88
2022-09-05T05:49:40.447Z,15.65
2022-09-05T05:54:43.553Z,15.73
2022-09-05T05:59:59.097Z,19.33
2022-09-05T06:05:25.704Z,17.23
2022-09-05T06:14:52.569Z,13.15
2022-09-05T06:16:21.437Z,18.45
2022-09-05T06:22:09.973Z,17.98
2022-09-05T06:27:15.418Z,13.55
2022-09-05T06:32:24.460Z,14.43
2022-09-05T06:37:28.167Z,11.82
2022-09-05T06:42:43.178Z,13.97
2022-09-05T06:47:44.834Z,17.17
2022-09-05T06:53:30.347Z,14.15
2022-09-05T06:58:43.519Z,15.07
2022-09-05T07:03:52.102Z,9.45
2022-09-05T07:08:54.087Z,13.07
2022-09-05T07:13:57.798Z,11.77
2022-09-05T07:19:03.332Z,13.70
2022-09-05T07:24:09.051Z,10.48
2022-09-05T07:29:09.209Z,14.45
2022-09-05T07:34:21.356Z,13.65
2022-09-05T07:39:29.563Z,8.32
2022-09-05T07:44:30.349Z,8.88
2022-09-05T07:49:31.407Z,8.13
2022-09-05T07:56:48.887Z,11.20
2022-09-05T07:59:51.764Z,7.70
2022-09-05T08:04:51.606Z,7.90
2022-09-05T08:10:08.252Z,7.03
2022-09-05T08:15:10.355Z,4.68
2022-09-05T08:20:21.481Z,4.55
2022-09-05T08:25:22.752Z,6.05
2022-09-05T08:30:25.056Z,8.63
2022-09-05T08:35:28.323Z,10.68
2022-09-05T08:40:33.625Z,6.18
2022-09-05T08:46:40.699Z,7.43
2022-09-05T08:51:03.814Z,4.05
2022-09-05T08:56:07.797Z,14.00
2022-09-05T09:01:12.982Z,8.35
2022-09-05T09:06:20.051Z,6.18
2022-09-05T09:11:27.651Z,5.20
2022-09-05T09:16:30.735Z,8.35
2022-09-05T09:21:34.046Z,6.55
2022-09-05T09:26:37.350Z,22.15
2022-09-05T09:31:43.015Z,6.47
2022-09-05T09:36:56.075Z,9.05
2022-09-05T09:42:32.623Z,12.00
2022-09-05T09:47:56.061Z,5.03
2022-09-05T09:53:02.167Z,6.03
2022-09-05T09:58:12.494Z,4.45
2022-09-05T10:07:38.163Z,11.32
2022-09-05T10:10:50.233Z,6.43
2022-09-05T10:14:50.015Z,10.27
2022-09-05T10:20:10.445Z,14.50
2022-09-05T10:25:21.558Z,8.32
2022-09-05T10:30:46.258Z,8.25
2022-09-05T10:35:43.523Z,7.50
2022-09-05T10:41:07.948Z,5.68
2022-09-05T10:46:07.274Z,9.10
2022-09-05T10:51:27.206Z,9.15
2022-09-05T10:56:30.586Z,8.38
2022-09-05T11:02:21.386Z,4.38
2022-09-05T11:06:54.669Z,7.57
2022-09-05T11:11:59.836Z,5.93
2022-09-05T11:17:04.061Z,4.53
2022-09-05T11:22:05.112Z,7.57
2022-09-05T11:27:27.650Z,4.28
2022-09-05T11:36:06.929Z,5.78
2022-09-05T11:39:56.071Z,5.15
2022-09-05T11:43:51.186Z,7.63
2022-09-05T11:49:08.526Z,4.85
2022-09-05T11:54:26.671Z,4.65
2022-09-05T11:59:39.993Z,9.43
2022-09-05T12:05:48.788Z,10.15
2022-09-05T12:10:47.279Z,4.38
2022-09-05T12:15:35.277Z,8.32
2022-09-05T12:20:46.290Z,6.70
2022-09-05T12:27:42.122Z,5.32
2022-09-05T12:32:48.323Z,7.22
2022-09-05T12:40:08.663Z,3.88
2022-09-05T12:42:14.347Z,3.15
2022-09-05T12:47:22.916Z,6.10
2022-09-05T12:52:28.374Z,3.95
2022-09-05T13:01:44.862Z,5.53
2022-09-05T13:03:11.349Z,6.85
2022-09-05T13:08:12.575Z,4.03
2022-09-05T13:14:52.981Z,6.07
2022-09-05T13:18:39.235Z,5.97
2022-09-05T13:23:40.670Z,6.53
2022-09-05T13:28:43.758Z,6.40
2022-09-05T13:38:01.425Z,6.30
2022-09-05T13:39:06.356Z,7.53
2022-09-05T13:44:25.604Z,5.07
2022-09-05T13:49:31.645Z,7.40
2022-09-05T13:54:50.255Z,3.53
2022-09-05T14:00:04.235Z,4.97
2022-09-05T14:05:20.723Z,7.05
2022-09-05T14:10:32.611Z,5.72
2022-09-05T14:15:36.407Z,6.45
2022-09-05T14:20:53.882Z,6.25
2022-09-05T14:25:55.513Z,4.80
2022-09-05T14:33:23.906Z,4.55
2022-09-05T14:37:52.528Z,3.33
2022-09-05T14:41:44.440Z,6.03
2022-09-05T14:47:34.925Z,4.93
2022-09-05T14:52:35.443Z,11.32
2022-09-05T15:02:45.964Z,5.32
2022-09-05T15:03:04.927Z,8.30
2022-09-05T15:08:28.949Z,5.95
2022-09-05T15:13:25.778Z,8.82
2022-09-05T15:18:26.716Z,6.85
2022-09-05T15:23:32.779Z,8.10
2022-09-05T15:28:35.673Z,14.55
2022-09-05T15:33:34.179Z,6.60
2022-09-05T15:38:37.097Z,8.20
2022-09-05T15:44:04.420Z,8.30
2022-09-05T15:49:11.078Z,10.27
2022-09-05T15:54:11.203Z,6.25
2022-09-05T15:59:30.930Z,7.60
2022-09-05T16:10:28.508Z,13.73
2022-09-05T16:10:45.380Z,6.70
2022-09-05T16:16:32.327Z,10.45
2022-09-05T16:23:25.661Z,7.07
2022-09-05T16:25:52.789Z,12.68
2022-09-05T16:30:53.374Z,10.77
2022-09-05T16:35:55.458Z,21.23
2022-09-05T16:40:55.805Z,7.22
2022-09-05T16:45:58.640Z,5.15
2022-09-05T16:51:00.030Z,9.68
2022-09-05T16:56:13.385Z,6.03
2022-09-05T17:01:31.977Z,9.40
2022-09-05T17:06:36.175Z,6.05
2022-09-05T17:11:54.557Z,6.72
2022-09-05T17:17:01.298Z,5.70
2022-09-05T17:25:06.867Z,7.95
2022-09-05T17:29:49.898Z,6.93
2022-09-05T17:32:59.618Z,5.30
2022-09-05T17:38:15.880Z,10.35
2022-09-05T17:43:18.653Z,6.97
2022-09-05T17:48:41.542Z,9.77
2022-09-05T17:54:15.524Z,9.80
2022-09-05T17:59:26.823Z,6.43
2022-09-05T18:04:46.158Z,6.55
2022-09-05T18:10:12.266Z,5.88
2022-09-05T18:15:16.306Z,5.47
2022-09-05T18:20:16.623Z,4.70
2022-09-05T18:25:28.911Z,4.10
2022-09-05T18:35:40.803Z,5.40
2022-09-05T18:40:45.964Z,8.18
2022-09-05T18:45:52.338Z,8.85
2022-09-05T18:50:52.107Z,4.40
2022-09-05T18:56:20.489Z,5.13
2022-09-05T19:01:28.278Z,7.18
2022-09-05T19:06:35.127Z,6.15
2022-09-05T19:11:53.269Z,5.65
2022-09-05T19:16:52.247Z,2.67
2022-09-05T19:22:05.559Z,2.70
2022-09-05T19:29:00.015Z,3.28
2022-09-05T19:37:05.309Z,2.90
2022-09-05T19:37:52.103Z,3.38
2022-09-05T19:47:28.456Z,3.88
2022-09-05T19:48:19.078Z,3.20
2022-09-05T19:53:18.253Z,8.35
2022-09-05T19:58:20.782Z,2.95
2022-09-05T20:03:22.760Z,2.83
2022-09-05T20:08:30.523Z,5.03
2022-09-05T20:13:30.222Z,7.20
2022-09-05T20:18:35.044Z,5.45
2022-09-05T20:23:33.599Z,3.17
2022-09-05T20:28:35.940Z,3.15
2022-09-05T20:33:41.886Z,2.45
2022-09-05T20:43:21.747Z,2.72
2022-09-05T20:44:22.801Z,4.20
2022-09-05T20:54:16.040Z,4.78
2022-09-05T20:54:43.924Z,3.45
2022-09-05T20:59:44.539Z,5.10
2022-09-05T21:04:53.479Z,3.80
2022-09-05T21:09:55.628Z,4.57
2022-09-05T21:15:24.245Z,5.32
2022-09-05T21:20:37.760Z,3.45
2022-09-05T21:25:49.271Z,3.67
2022-09-05T21:30:47.850Z,7.63
2022-09-05T21:35:49.531Z,2.97
2022-09-05T21:40:52.740Z,4.72
2022-09-05T21:47:40.212Z,3.92
2022-09-05T21:51:16.173Z,7.47
2022-09-05T21:59:24.361Z,4.38
2022-09-05T22:01:44.717Z,2.65
2022-09-05T22:06:54.257Z,3.42
2022-09-05T22:11:52.865Z,3.08
2022-09-05T22:16:51.875Z,4.32
2022-09-05T22:21:50.261Z,3.25
2022-09-05T22:27:11.113Z,2.20
2022-09-05T22:32:12.303Z,3.78
2022-09-05T22:37:10.624Z,4.88
2022-09-05T22:42:11.105Z,2.58
2022-09-05T22:47:09.795Z,3.95
2022-09-05T22:52:08.923Z,5.57
2022-09-05T22:57:07.149Z,4.13
2022-09-05T23:02:06.798Z,3.95
2022-09-05T23:07:05.099Z,4.45
2022-09-05T23:12:03.616Z,2.20
2022-09-05T23:17:01.858Z,2.90
2022-09-05T23:22:02.164Z,6.10
2022-09-05T23:27:00.648Z,4.07
2022-09-05T23:31:58.876Z,2.53
2022-09-05T23:36:57.137Z,6.70
2022-09-05T23:41:56.744Z,2.38
2022-09-05T23:46:54.980Z,2.58
2022-09-05T23:51:53.204Z,6.93
2022-09-05T23:56:51.469Z,7.05
